DW2380 Paimio FI current weather conditions

sailwx.info

Wind from 360 at 11 knots gusting 18

Air temperature 13.3° C
Dewpoint 6.4° C

Last reported at 2016-Oct-01 11:44 UTC.
Time now 2016-Oct-01 12:08 UTC

Location: N 60°28' E 022°40'.
View on Google Maps.

See reports from other nearby stations

  
Tides and Currents Weather Stations Pressure Air Temp Water Temp Dewpoint Dewpoint Depression Visibility Wind Speed Wind Dir Waves Ship Positions
date/time (UTC)wind fromknots sea level pressurealtimeterstation pressurevisibilityair tempwater tempwave heightnotes
2016-Oct-01 11:44 360 11 gusting 18 13.3
2016-Oct-01 11:29 360 11 gusting 18 13.3
2016-Oct-01 11:14 360 9 gusting 18 13.3
2016-Oct-01 10:59 360 7 gusting 19 12.8
2016-Oct-01 10:44 360 9 gusting 16 12.8
2016-Oct-01 10:28 360 10 gusting 16 12.8
2016-Oct-01 10:13 360 8 gusting 16 12.2
2016-Oct-01 09:58 360 11 gusting 16 12.8
2016-Oct-01 09:43 360 8 gusting 18 12.8
2016-Oct-01 09:28 360 12 gusting 21 13.3
2016-Oct-01 09:13 360 13 gusting 26 13.3
2016-Oct-01 08:57 360 13 gusting 19 12.8
2016-Oct-01 08:42 360 12 gusting 23 12.8
2016-Oct-01 08:27 360 13 gusting 20 11.7
2016-Oct-01 08:12 360 9 gusting 22 11.7
2016-Oct-01 07:57 360 11 gusting 21 11.7
2016-Oct-01 07:42 360 11 gusting 19 12.2
2016-Oct-01 07:26 360 10 gusting 19 11.7
2016-Oct-01 07:11 360 12 gusting 20 11.7
2016-Oct-01 06:56 360 7 gusting 17 10.6
2016-Oct-01 06:41 360 12 gusting 22 10.6
2016-Oct-01 06:26 360 13 gusting 19 11.1
2016-Oct-01 06:11 360 6 gusting 14 11.1
2016-Oct-01 05:56 360 8 gusting 14 10.6
2016-Oct-01 05:41 360 6 gusting 12 10.6
2016-Oct-01 05:26 360 6 gusting 14 10.6
2016-Oct-01 05:11 360 10 gusting 19 10.6
2016-Oct-01 04:56 360 7 gusting 15 10.6
2016-Oct-01 04:39 360 7 gusting 13 10.6
2016-Oct-01 04:24 360 8 gusting 19 10.6
2016-Oct-01 04:09 360 9 gusting 16 10.6
2016-Oct-01 03:54 360 6 gusting 15 10.6
2016-Oct-01 03:39 360 10 gusting 19 10.6
2016-Oct-01 03:24 360 9 gusting 15 10.6
2016-Oct-01 03:09 360 7 gusting 13 10.6
2016-Oct-01 02:53 360 11 gusting 18 10.6
2016-Oct-01 02:38 360 12 gusting 19 10.6
2016-Oct-01 02:23 360 12 gusting 20 10.6
2016-Oct-01 02:08 360 10 gusting 16 10.6
2016-Oct-01 01:53 360 8 gusting 16 10.6
2016-Oct-01 01:38 360 7 gusting 14 10.6
2016-Oct-01 01:22 360 7 gusting 15 10.6
2016-Oct-01 01:07 360 8 gusting 15 10.6
2016-Oct-01 00:52 360 7 gusting 15 10.0
2016-Oct-01 00:37 360 6 gusting 10 10.0
2016-Oct-01 00:22 360 4 gusting 11 10.0
2016-Oct-01 00:07 360 6 gusting 10 10.0
2016-Sep-30 23:52 360 6 gusting 12 10.0
2016-Sep-30 23:36 360 7 gusting 13 10.0
2016-Sep-30 23:22 360 6 gusting 11 10.0
2016-Sep-30 23:07 360 5 gusting 11 10.0
2016-Sep-30 22:52 360 2 gusting 8 10.0
2016-Sep-30 22:36 360 6 gusting 10 10.0
2016-Sep-30 22:21 360 5 gusting 10 10.0
2016-Sep-30 22:07 360 4 gusting 9 10.0
2016-Sep-30 21:51 360 6 gusting 11 10.0
2016-Sep-30 21:36 360 4 gusting 7 10.0
2016-Sep-30 21:21 360 4 gusting 7 10.6
2016-Sep-30 21:07 360 6 gusting 12 10.6
2016-Sep-30 20:49 360 5 gusting 12 10.6
2016-Sep-30 20:34 360 4 gusting 10 10.6
2016-Sep-30 20:19 360 6 gusting 10 10.6
2016-Sep-30 20:05 360 6 gusting 9 10.6
2016-Sep-30 19:49 360 5 gusting 10 10.6
2016-Sep-30 19:34 360 6 gusting 9 11.1
2016-Sep-30 19:19 360 6 gusting 10 11.1
2016-Sep-30 19:03 360 7 gusting 14 11.1
2016-Sep-30 18:48 360 7 gusting 13 11.1
2016-Sep-30 18:35 360 7 gusting 18 10.6
2016-Sep-30 18:03 360 5 gusting 9 10.0
2016-Sep-30 17:48 360 4 gusting 8 10.0
2016-Sep-30 17:33 360 5 gusting 10 10.0
2016-Sep-30 17:17 360 2 gusting 6 10.0
2016-Sep-30 17:02 360 3 gusting 6 10.6
2016-Sep-30 16:47 360 5 gusting 8 10.6
2016-Sep-30 16:32 360 4 gusting 7 11.1
2016-Sep-30 16:17 360 4 gusting 9 11.7
2016-Sep-30 16:02 360 6 gusting 9 12.2
2016-Sep-30 15:48 360 6 gusting 12 12.2
2016-Sep-30 15:34 360 6 gusting 13 12.8
2016-Sep-30 15:16 360 7 gusting 15 13.3
2016-Sep-30 15:04 360 6 gusting 13 13.9
2016-Sep-30 14:46 360 12 gusting 19 13.9
2016-Sep-30 14:33 360 8 gusting 14 13.9
2016-Sep-30 14:17 360 9 gusting 18 14.4
2016-Sep-30 14:04 360 7 gusting 15 14.4
2016-Sep-30 13:47 360 9 gusting 18 14.4
2016-Sep-30 13:32 360 13 gusting 22 14.4
2016-Sep-30 13:16 360 10 gusting 19 14.4
2016-Sep-30 13:03 360 13 gusting 18 14.4
2016-Sep-30 12:44 360 10 gusting 22 13.9
2016-Sep-30 12:29 360 12 gusting 20 13.9
2016-Sep-30 12:14 360 13 gusting 24 13.9
2016-Sep-30 11:59 360 13 gusting 22 15.0
2016-Sep-30 11:44 360 11 gusting 22 14.4
2016-Sep-30 11:28 360 12 gusting 21 14.4
2016-Sep-30 11:14 360 10 gusting 22 13.9
2016-Sep-30 10:58 360 13 gusting 19 13.9
2016-Sep-30 10:43 360 13 gusting 25 14.4
2016-Sep-30 10:28 360 10 gusting 21 14.4
2016-Sep-30 10:13 360 13 gusting 19 14.4
2016-Sep-30 09:58 360 9 gusting 19 14.4
2016-Sep-30 09:43 360 11 gusting 25 13.9
2016-Sep-30 09:27 360 13 gusting 23 13.9
2016-Sep-30 09:12 360 15 gusting 27 13.3
2016-Sep-30 08:57 360 10 gusting 21 13.3
2016-Sep-30 08:42 360 14 gusting 30 13.3
2016-Sep-30 08:27 360 12 gusting 22 13.3
2016-Sep-30 08:11 360 10 gusting 16 13.3
2016-Sep-30 07:56 360 10 gusting 22 12.8
2016-Sep-30 07:43 360 12 gusting 21 12.8
2016-Sep-30 07:26 360 11 gusting 22 12.8
2016-Sep-30 07:11 360 13 gusting 24 12.8
2016-Sep-30 06:56 360 12 gusting 26 12.8
2016-Sep-30 06:41 360 11 gusting 19 12.8
2016-Sep-30 06:26 360 8 gusting 19 12.2
2016-Sep-30 06:11 360 13 gusting 20 12.2
2016-Sep-30 05:56 360 12 gusting 24 12.2
2016-Sep-30 05:41 360 10 gusting 16 11.7
2016-Sep-30 05:26 360 8 gusting 17 11.7
2016-Sep-30 05:11 360 9 gusting 15 11.1
2016-Sep-30 04:54 360 10 gusting 17 11.1
2016-Sep-30 04:39 360 11 gusting 19 11.1
2016-Sep-30 04:24 360 12 gusting 19 11.7
2016-Sep-30 04:09 360 12 gusting 22 11.1
2016-Sep-30 03:54 360 8 gusting 16 11.7
2016-Sep-30 03:38 360 6 gusting 19 12.2
2016-Sep-30 03:23 360 14 gusting 25 12.2
2016-Sep-30 03:08 360 13 gusting 20 12.2
2016-Sep-30 02:53 360 11 gusting 22 12.2
2016-Sep-30 02:38 360 14 gusting 27 12.2
2016-Sep-30 02:23 360 8 gusting 19 12.8
2016-Sep-30 02:08 360 12 gusting 27 12.8
2016-Sep-30 01:52 360 14 gusting 26 12.2
2016-Sep-30 01:37 360 13 gusting 22 12.8
2016-Sep-30 01:22 360 12 gusting 22 12.8
2016-Sep-30 01:07 360 12 gusting 20 13.3
2016-Sep-30 00:52 360 11 gusting 21 13.3
2016-Sep-30 00:36 360 11 gusting 19 13.3
2016-Sep-30 00:21 360 13 gusting 26 13.3
2016-Sep-30 00:06 360 13 gusting 22 12.8
2016-Sep-29 23:51 360 7 gusting 16 12.8
2016-Sep-29 23:36 360 12 gusting 20 12.8
2016-Sep-29 23:21 360 12 gusting 21 12.8
2016-Sep-29 23:06 360 10 gusting 19 12.8
2016-Sep-29 22:51 360 10 gusting 17 12.8
2016-Sep-29 22:36 360 7 gusting 18 12.8
2016-Sep-29 22:21 360 7 gusting 13 12.8
2016-Sep-29 22:06 360 9 gusting 16 12.8
2016-Sep-29 21:51 360 8 gusting 18 12.8
2016-Sep-29 21:34 360 8 gusting 15 13.3
2016-Sep-29 21:21 360 11 gusting 17 13.3
2016-Sep-29 21:04 360 9 gusting 14 13.3
2016-Sep-29 20:49 360 9 gusting 23 13.9
2016-Sep-29 20:34 360 12 gusting 21 13.9
2016-Sep-29 20:19 360 10 gusting 16 14.4
2016-Sep-29 20:04 360 8 gusting 17 14.4
2016-Sep-29 19:48 360 7 gusting 14 14.4
2016-Sep-29 19:34 360 10 gusting 19 15.0
2016-Sep-29 19:19 360 9 gusting 17 15.0
2016-Sep-29 19:03 360 12 gusting 18 15.0
2016-Sep-29 18:48 360 9 gusting 21 15.0
2016-Sep-29 18:33 360 8 gusting 19 15.0
2016-Sep-29 18:18 360 12 gusting 19 15.6
2016-Sep-29 18:03 360 13 gusting 22 15.6
2016-Sep-29 17:48 360 13 gusting 20 15.6
2016-Sep-29 17:33 360 13 gusting 20 15.6
2016-Sep-29 17:17 360 13 gusting 22 15.6
2016-Sep-29 17:02 360 10 gusting 19 15.0
2016-Sep-29 16:48 360 13 gusting 21 15.0
2016-Sep-29 16:32 360 12 gusting 25 15.0
2016-Sep-29 16:17 360 13 gusting 26 15.0
2016-Sep-29 16:02 360 13 gusting 24 15.0
2016-Sep-29 15:46 360 16 gusting 24 15.0
2016-Sep-29 15:31 360 13 gusting 28 15.0
2016-Sep-29 15:16 360 16 gusting 25 15.0
2016-Sep-29 15:01 360 15 gusting 30 14.4
2016-Sep-29 14:46 360 11 gusting 19 13.9
2016-Sep-29 14:31 360 10 gusting 20 13.3
2016-Sep-29 14:16 360 7 gusting 18 12.8
2016-Sep-29 14:02 360 10 gusting 19 12.2
2016-Sep-29 13:46 360 10 gusting 18 12.2
2016-Sep-29 13:31 360 11 gusting 18 11.7
2016-Sep-29 13:14 360 8 gusting 15 11.7
2016-Sep-29 12:59 360 12 gusting 19 12.2
2016-Sep-29 12:44 360 10 gusting 15 12.2
2016-Sep-29 12:29 360 9 gusting 22 12.8
2016-Sep-29 12:14 360 11 gusting 24 13.3